sensor_id;sensor_type;location;lat;lon;timestamp;P1;durP1;ratioP1;P2;durP2;ratioP2
28802;SDS011;15949;55.656;37.422;2022-11-20T00:04:04;23.40;;;14.70;;
28802;SDS011;15949;55.656;37.422;2022-11-20T00:09:10;23.65;;;15.18;;
28802;SDS011;15949;55.656;37.422;2022-11-20T00:14:16;23.20;;;15.20;;
28802;SDS011;15949;55.656;37.422;2022-11-20T00:19:21;20.45;;;13.88;;
28802;SDS011;15949;55.656;37.422;2022-11-20T00:24:27;24.95;;;14.57;;
28802;SDS011;15949;55.656;37.422;2022-11-20T00:29:33;21.63;;;13.82;;
28802;SDS011;15949;55.656;37.422;2022-11-20T00:34:38;19.92;;;13.82;;
28802;SDS011;15949;55.656;37.422;2022-11-20T00:39:44;20.35;;;14.55;;
28802;SDS011;15949;55.656;37.422;2022-11-20T00:44:50;22.48;;;14.60;;
28802;SDS011;15949;55.656;37.422;2022-11-20T00:49:55;21.55;;;14.82;;
28802;SDS011;15949;55.656;37.422;2022-11-20T00:55:01;20.58;;;14.18;;
28802;SDS011;15949;55.656;37.422;2022-11-20T01:00:07;19.55;;;13.32;;
28802;SDS011;15949;55.656;37.422;2022-11-20T01:05:13;22.73;;;14.52;;
28802;SDS011;15949;55.656;37.422;2022-11-20T01:10:19;24.75;;;16.58;;
28802;SDS011;15949;55.656;37.422;2022-11-20T01:15:24;24.58;;;16.90;;
28802;SDS011;15949;55.656;37.422;2022-11-20T01:20:33;26.85;;;17.95;;
28802;SDS011;15949;55.656;37.422;2022-11-20T01:25:41;27.80;;;17.30;;
28802;SDS011;15949;55.656;37.422;2022-11-20T01:30:46;25.23;;;17.05;;
28802;SDS011;15949;55.656;37.422;2022-11-20T01:35:52;25.05;;;16.65;;
28802;SDS011;15949;55.656;37.422;2022-11-20T01:40:58;25.73;;;16.83;;
28802;SDS011;15949;55.656;37.422;2022-11-20T01:56:44;26.25;;;17.00;;
28802;SDS011;15949;55.656;37.422;2022-11-20T02:01:52;26.63;;;16.58;;
28802;SDS011;15949;55.656;37.422;2022-11-20T02:07:02;27.27;;;16.83;;
28802;SDS011;15949;55.656;37.422;2022-11-20T02:12:10;25.20;;;16.17;;
28802;SDS011;15949;55.656;37.422;2022-11-20T02:17:36;21.33;;;15.10;;
28802;SDS011;15949;55.656;37.422;2022-11-20T02:22:45;19.48;;;13.65;;
28802;SDS011;15949;55.656;37.422;2022-11-20T02:27:59;20.45;;;13.60;;
28802;SDS011;15949;55.656;37.422;2022-11-20T02:33:04;20.02;;;12.88;;
28802;SDS011;15949;55.656;37.422;2022-11-20T02:38:10;20.77;;;13.40;;
28802;SDS011;15949;55.656;37.422;2022-11-20T02:43:16;20.98;;;13.68;;
28802;SDS011;15949;55.656;37.422;2022-11-20T02:48:22;23.20;;;14.25;;
28802;SDS011;15949;55.656;37.422;2022-11-20T02:53:27;19.90;;;13.77;;
28802;SDS011;15949;55.656;37.422;2022-11-20T02:58:33;22.45;;;14.23;;
28802;SDS011;15949;55.656;37.422;2022-11-20T03:03:39;19.60;;;13.43;;
28802;SDS011;15949;55.656;37.422;2022-11-20T03:08:45;19.05;;;13.10;;
28802;SDS011;15949;55.656;37.422;2022-11-20T03:13:50;20.75;;;13.38;;
28802;SDS011;15949;55.656;37.422;2022-11-20T03:18:56;20.98;;;14.02;;
28802;SDS011;15949;55.656;37.422;2022-11-20T03:24:02;19.88;;;13.23;;
28802;SDS011;15949;55.656;37.422;2022-11-20T03:29:08;19.98;;;13.98;;
28802;SDS011;15949;55.656;37.422;2022-11-20T03:34:14;19.73;;;13.32;;
28802;SDS011;15949;55.656;37.422;2022-11-20T03:39:20;22.33;;;14.38;;
28802;SDS011;15949;55.656;37.422;2022-11-20T03:44:26;22.10;;;13.88;;
28802;SDS011;15949;55.656;37.422;2022-11-20T03:49:31;22.85;;;14.40;;
28802;SDS011;15949;55.656;37.422;2022-11-20T03:54:37;21.63;;;14.70;;
28802;SDS011;15949;55.656;37.422;2022-11-20T03:59:43;26.58;;;15.57;;
28802;SDS011;15949;55.656;37.422;2022-11-20T04:04:49;23.38;;;13.85;;
28802;SDS011;15949;55.656;37.422;2022-11-20T04:09:54;22.05;;;13.20;;
28802;SDS011;15949;55.656;37.422;2022-11-20T04:15:00;24.20;;;14.73;;
28802;SDS011;15949;55.656;37.422;2022-11-20T04:20:06;20.85;;;13.02;;
28802;SDS011;15949;55.656;37.422;2022-11-20T04:25:12;24.80;;;14.50;;
28802;SDS011;15949;55.656;37.422;2022-11-20T04:30:18;18.88;;;13.02;;
28802;SDS011;15949;55.656;37.422;2022-11-20T04:35:23;21.23;;;12.10;;
28802;SDS011;15949;55.656;37.422;2022-11-20T04:40:29;18.60;;;12.05;;
28802;SDS011;15949;55.656;37.422;2022-11-20T04:45:35;23.40;;;12.98;;
28802;SDS011;15949;55.656;37.422;2022-11-20T04:50:41;22.45;;;13.60;;
28802;SDS011;15949;55.656;37.422;2022-11-20T04:55:47;23.88;;;13.57;;
28802;SDS011;15949;55.656;37.422;2022-11-20T05:00:52;24.90;;;13.52;;
28802;SDS011;15949;55.656;37.422;2022-11-20T05:06:04;22.55;;;13.80;;
28802;SDS011;15949;55.656;37.422;2022-11-20T05:11:12;19.50;;;13.18;;
28802;SDS011;15949;55.656;37.422;2022-11-20T05:16:21;24.83;;;14.23;;
28802;SDS011;15949;55.656;37.422;2022-11-20T05:21:29;22.88;;;13.70;;
28802;SDS011;15949;55.656;37.422;2022-11-20T05:26:37;24.15;;;14.10;;
28802;SDS011;15949;55.656;37.422;2022-11-20T05:31:42;26.25;;;15.10;;
28802;SDS011;15949;55.656;37.422;2022-11-20T05:36:48;23.17;;;15.02;;
28802;SDS011;15949;55.656;37.422;2022-11-20T05:41:54;26.50;;;16.35;;
28802;SDS011;15949;55.656;37.422;2022-11-20T05:47:18;26.27;;;15.98;;
28802;SDS011;15949;55.656;37.422;2022-11-20T05:52:24;23.90;;;15.52;;
28802;SDS011;15949;55.656;37.422;2022-11-20T05:57:30;25.90;;;16.13;;
28802;SDS011;15949;55.656;37.422;2022-11-20T06:02:36;27.60;;;15.60;;
28802;SDS011;15949;55.656;37.422;2022-11-20T06:07:42;25.42;;;15.50;;
28802;SDS011;15949;55.656;37.422;2022-11-20T06:12:48;28.55;;;16.30;;
28802;SDS011;15949;55.656;37.422;2022-11-20T06:17:54;27.88;;;15.05;;
28802;SDS011;15949;55.656;37.422;2022-11-20T06:23:01;28.65;;;16.25;;
28802;SDS011;15949;55.656;37.422;2022-11-20T06:28:06;27.17;;;16.05;;
28802;SDS011;15949;55.656;37.422;2022-11-20T06:33:13;29.13;;;16.40;;
28802;SDS011;15949;55.656;37.422;2022-11-20T06:38:18;22.90;;;14.82;;
28802;SDS011;15949;55.656;37.422;2022-11-20T06:43:24;26.85;;;16.60;;
28802;SDS011;15949;55.656;37.422;2022-11-20T06:48:31;25.90;;;15.57;;
28802;SDS011;15949;55.656;37.422;2022-11-20T06:53:37;30.73;;;16.50;;
28802;SDS011;15949;55.656;37.422;2022-11-20T06:58:43;26.88;;;15.50;;
28802;SDS011;15949;55.656;37.422;2022-11-20T07:03:49;29.60;;;16.67;;
28802;SDS011;15949;55.656;37.422;2022-11-20T07:08:56;25.52;;;16.02;;
28802;SDS011;15949;55.656;37.422;2022-11-20T07:14:02;29.42;;;15.52;;
28802;SDS011;15949;55.656;37.422;2022-11-20T07:19:08;29.23;;;16.38;;
28802;SDS011;15949;55.656;37.422;2022-11-20T07:24:14;31.58;;;17.38;;
28802;SDS011;15949;55.656;37.422;2022-11-20T07:29:20;29.50;;;16.40;;
28802;SDS011;15949;55.656;37.422;2022-11-20T07:34:25;28.80;;;16.10;;
28802;SDS011;15949;55.656;37.422;2022-11-20T07:39:31;27.80;;;16.63;;
28802;SDS011;15949;55.656;37.422;2022-11-20T07:44:37;26.67;;;16.75;;
28802;SDS011;15949;55.656;37.422;2022-11-20T07:49:42;29.52;;;17.40;;
28802;SDS011;15949;55.656;37.422;2022-11-20T07:54:48;31.65;;;18.00;;
28802;SDS011;15949;55.656;37.422;2022-11-20T07:59:53;31.95;;;17.95;;
28802;SDS011;15949;55.656;37.422;2022-11-20T08:04:59;30.08;;;17.92;;
28802;SDS011;15949;55.656;37.422;2022-11-20T08:10:05;28.90;;;18.23;;
28802;SDS011;15949;55.656;37.422;2022-11-20T08:15:12;35.30;;;19.25;;
28802;SDS011;15949;55.656;37.422;2022-11-20T08:20:17;36.38;;;19.90;;
28802;SDS011;15949;55.656;37.422;2022-11-20T08:25:23;33.80;;;19.80;;
28802;SDS011;15949;55.656;37.422;2022-11-20T08:30:28;38.30;;;18.92;;
28802;SDS011;15949;55.656;37.422;2022-11-20T08:35:35;43.97;;;23.08;;
28802;SDS011;15949;55.656;37.422;2022-11-20T08:40:42;40.38;;;21.85;;
28802;SDS011;15949;55.656;37.422;2022-11-20T08:46:08;38.67;;;21.38;;
28802;SDS011;15949;55.656;37.422;2022-11-20T08:51:14;48.28;;;26.13;;
28802;SDS011;15949;55.656;37.422;2022-11-20T08:56:20;53.75;;;25.75;;
28802;SDS011;15949;55.656;37.422;2022-11-20T09:01:25;50.03;;;26.60;;
28802;SDS011;15949;55.656;37.422;2022-11-20T09:06:32;47.90;;;26.73;;
28802;SDS011;15949;55.656;37.422;2022-11-20T09:11:37;47.47;;;26.30;;
28802;SDS011;15949;55.656;37.422;2022-11-20T09:16:44;45.80;;;25.00;;
28802;SDS011;15949;55.656;37.422;2022-11-20T09:21:51;51.88;;;25.30;;
28802;SDS011;15949;55.656;37.422;2022-11-20T09:26:56;46.30;;;24.15;;
28802;SDS011;15949;55.656;37.422;2022-11-20T09:32:02;45.45;;;25.13;;
28802;SDS011;15949;55.656;37.422;2022-11-20T09:37:08;46.55;;;23.80;;
28802;SDS011;15949;55.656;37.422;2022-11-20T09:59:06;47.95;;;24.08;;
28802;SDS011;15949;55.656;37.422;2022-11-20T10:04:19;44.13;;;23.92;;
28802;SDS011;15949;55.656;37.422;2022-11-20T10:09:32;48.30;;;24.98;;
28802;SDS011;15949;55.656;37.422;2022-11-20T10:20:25;40.58;;;22.60;;
28802;SDS011;15949;55.656;37.422;2022-11-20T10:25:39;44.65;;;23.95;;
28802;SDS011;15949;55.656;37.422;2022-11-20T10:31:00;45.05;;;23.45;;
28802;SDS011;15949;55.656;37.422;2022-11-20T10:36:13;38.85;;;22.42;;
28802;SDS011;15949;55.656;37.422;2022-11-20T10:41:28;36.58;;;21.77;;
28802;SDS011;15949;55.656;37.422;2022-11-20T10:46:39;32.08;;;19.27;;
28802;SDS011;15949;55.656;37.422;2022-11-20T11:03:00;30.45;;;18.70;;
28802;SDS011;15949;55.656;37.422;2022-11-20T11:08:14;35.67;;;21.30;;
28802;SDS011;15949;55.656;37.422;2022-11-20T11:13:28;29.80;;;19.45;;
28802;SDS011;15949;55.656;37.422;2022-11-20T11:18:36;26.80;;;15.90;;
28802;SDS011;15949;55.656;37.422;2022-11-20T11:23:42;25.63;;;16.23;;
28802;SDS011;15949;55.656;37.422;2022-11-20T11:34:06;26.90;;;15.95;;
28802;SDS011;15949;55.656;37.422;2022-11-20T11:39:16;21.48;;;14.02;;
28802;SDS011;15949;55.656;37.422;2022-11-20T11:44:35;19.58;;;12.32;;
28802;SDS011;15949;55.656;37.422;2022-11-20T12:00:50;18.92;;;12.13;;
28802;SDS011;15949;55.656;37.422;2022-11-20T12:06:03;19.52;;;12.90;;
28802;SDS011;15949;55.656;37.422;2022-11-20T12:16:39;20.60;;;13.30;;
28802;SDS011;15949;55.656;37.422;2022-11-20T12:37:49;27.25;;;17.23;;
28802;SDS011;15949;55.656;37.422;2022-11-20T12:59:58;25.35;;;15.18;;
28802;SDS011;15949;55.656;37.422;2022-11-20T13:05:20;26.80;;;15.95;;
28802;SDS011;15949;55.656;37.422;2022-11-20T13:10:43;20.23;;;12.90;;
28802;SDS011;15949;55.656;37.422;2022-11-20T13:15:58;26.85;;;16.08;;
28802;SDS011;15949;55.656;37.422;2022-11-20T13:21:34;25.67;;;15.63;;
28802;SDS011;15949;55.656;37.422;2022-11-20T13:26:42;26.08;;;15.75;;
28802;SDS011;15949;55.656;37.422;2022-11-20T13:31:47;25.67;;;16.27;;
28802;SDS011;15949;55.656;37.422;2022-11-20T13:36:54;25.75;;;15.95;;
28802;SDS011;15949;55.656;37.422;2022-11-20T13:42:18;24.53;;;16.20;;
28802;SDS011;15949;55.656;37.422;2022-11-20T13:47:30;26.83;;;15.57;;
28802;SDS011;15949;55.656;37.422;2022-11-20T14:08:55;22.73;;;14.82;;
28802;SDS011;15949;55.656;37.422;2022-11-20T14:19:27;23.88;;;14.25;;
28802;SDS011;15949;55.656;37.422;2022-11-20T14:24:35;27.95;;;15.65;;
28802;SDS011;15949;55.656;37.422;2022-11-20T15:12:02;25.92;;;14.65;;
28802;SDS011;15949;55.656;37.422;2022-11-20T15:17:09;23.83;;;14.82;;
28802;SDS011;15949;55.656;37.422;2022-11-20T15:22:16;26.92;;;15.10;;
28802;SDS011;15949;55.656;37.422;2022-11-20T15:27:22;25.55;;;15.10;;
28802;SDS011;15949;55.656;37.422;2022-11-20T15:32:28;26.45;;;14.90;;
28802;SDS011;15949;55.656;37.422;2022-11-20T15:37:33;27.33;;;15.85;;
28802;SDS011;15949;55.656;37.422;2022-11-20T15:42:39;22.95;;;14.50;;
28802;SDS011;15949;55.656;37.422;2022-11-20T15:48:05;29.35;;;16.55;;
28802;SDS011;15949;55.656;37.422;2022-11-20T15:53:16;26.15;;;15.95;;
28802;SDS011;15949;55.656;37.422;2022-11-20T15:58:22;29.70;;;15.75;;
28802;SDS011;15949;55.656;37.422;2022-11-20T16:03:29;26.35;;;16.90;;
28802;SDS011;15949;55.656;37.422;2022-11-20T16:08:35;36.55;;;20.35;;
28802;SDS011;15949;55.656;37.422;2022-11-20T16:13:40;32.72;;;17.13;;
28802;SDS011;15949;55.656;37.422;2022-11-20T16:19:05;26.75;;;15.25;;
28802;SDS011;15949;55.656;37.422;2022-11-20T16:24:11;24.80;;;15.50;;
28802;SDS011;15949;55.656;37.422;2022-11-20T16:29:18;27.17;;;17.00;;
28802;SDS011;15949;55.656;37.422;2022-11-20T16:34:24;24.77;;;16.13;;
28802;SDS011;15949;55.656;37.422;2022-11-20T16:39:30;25.50;;;16.50;;
28802;SDS011;15949;55.656;37.422;2022-11-20T16:44:35;26.30;;;16.52;;
28802;SDS011;15949;55.656;37.422;2022-11-20T16:49:41;26.88;;;16.75;;
28802;SDS011;15949;55.656;37.422;2022-11-20T16:54:47;28.17;;;15.77;;
28802;SDS011;15949;55.656;37.422;2022-11-20T16:59:52;30.58;;;16.85;;
28802;SDS011;15949;55.656;37.422;2022-11-20T17:04:58;25.48;;;16.10;;
28802;SDS011;15949;55.656;37.422;2022-11-20T17:10:04;28.48;;;16.10;;
28802;SDS011;15949;55.656;37.422;2022-11-20T17:15:10;28.23;;;15.23;;
28802;SDS011;15949;55.656;37.422;2022-11-20T17:20:15;30.83;;;17.17;;
28802;SDS011;15949;55.656;37.422;2022-11-20T17:25:21;25.35;;;15.60;;
28802;SDS011;15949;55.656;37.422;2022-11-20T17:30:26;29.55;;;17.60;;
28802;SDS011;15949;55.656;37.422;2022-11-20T17:35:34;27.42;;;16.35;;
28802;SDS011;15949;55.656;37.422;2022-11-20T17:40:40;29.80;;;17.70;;
28802;SDS011;15949;55.656;37.422;2022-11-20T17:45:46;26.70;;;16.63;;
28802;SDS011;15949;55.656;37.422;2022-11-20T17:50:51;25.88;;;16.45;;
28802;SDS011;15949;55.656;37.422;2022-11-20T17:55:57;25.73;;;16.75;;
28802;SDS011;15949;55.656;37.422;2022-11-20T18:01:21;29.85;;;17.60;;
28802;SDS011;15949;55.656;37.422;2022-11-20T18:06:27;27.33;;;17.48;;
28802;SDS011;15949;55.656;37.422;2022-11-20T18:11:35;31.23;;;17.48;;
28802;SDS011;15949;55.656;37.422;2022-11-20T18:16:43;31.70;;;17.73;;
28802;SDS011;15949;55.656;37.422;2022-11-20T18:21:51;28.65;;;17.48;;
28802;SDS011;15949;55.656;37.422;2022-11-20T18:26:57;31.10;;;18.52;;
28802;SDS011;15949;55.656;37.422;2022-11-20T18:32:03;30.80;;;19.40;;
28802;SDS011;15949;55.656;37.422;2022-11-20T18:37:09;29.42;;;18.85;;
28802;SDS011;15949;55.656;37.422;2022-11-20T18:42:15;25.60;;;17.27;;
28802;SDS011;15949;55.656;37.422;2022-11-20T18:47:39;28.15;;;17.50;;
28802;SDS011;15949;55.656;37.422;2022-11-20T18:52:45;30.35;;;17.63;;
28802;SDS011;15949;55.656;37.422;2022-11-20T18:57:52;36.45;;;19.02;;
28802;SDS011;15949;55.656;37.422;2022-11-20T19:02:59;32.22;;;18.40;;
28802;SDS011;15949;55.656;37.422;2022-11-20T19:08:04;29.05;;;17.85;;
28802;SDS011;15949;55.656;37.422;2022-11-20T19:13:10;27.80;;;17.13;;
28802;SDS011;15949;55.656;37.422;2022-11-20T19:18:15;31.13;;;18.15;;
28802;SDS011;15949;55.656;37.422;2022-11-20T19:23:21;31.92;;;17.77;;
28802;SDS011;15949;55.656;37.422;2022-11-20T19:28:33;31.70;;;18.00;;
28802;SDS011;15949;55.656;37.422;2022-11-20T19:33:40;33.30;;;19.08;;
28802;SDS011;15949;55.656;37.422;2022-11-20T19:38:47;33.55;;;19.40;;
28802;SDS011;15949;55.656;37.422;2022-11-20T19:44:01;33.88;;;19.23;;
28802;SDS011;15949;55.656;37.422;2022-11-20T19:49:18;38.60;;;19.30;;
28802;SDS011;15949;55.656;37.422;2022-11-20T19:54:23;34.08;;;19.85;;
28802;SDS011;15949;55.656;37.422;2022-11-20T19:59:29;38.33;;;23.08;;
28802;SDS011;15949;55.656;37.422;2022-11-20T20:04:35;36.25;;;22.48;;
28802;SDS011;15949;55.656;37.422;2022-11-20T20:09:40;37.75;;;22.25;;
28802;SDS011;15949;55.656;37.422;2022-11-20T20:14:46;36.83;;;21.85;;
28802;SDS011;15949;55.656;37.422;2022-11-20T20:19:51;32.85;;;20.35;;
28802;SDS011;15949;55.656;37.422;2022-11-20T20:24:57;37.65;;;18.98;;
28802;SDS011;15949;55.656;37.422;2022-11-20T20:30:03;30.65;;;18.42;;
28802;SDS011;15949;55.656;37.422;2022-11-20T20:35:09;27.70;;;16.90;;
28802;SDS011;15949;55.656;37.422;2022-11-20T20:40:15;28.80;;;16.58;;
28802;SDS011;15949;55.656;37.422;2022-11-20T20:45:23;24.90;;;16.45;;
28802;SDS011;15949;55.656;37.422;2022-11-20T20:50:28;26.17;;;16.45;;
28802;SDS011;15949;55.656;37.422;2022-11-20T20:55:34;27.02;;;16.52;;
28802;SDS011;15949;55.656;37.422;2022-11-20T21:00:40;26.80;;;16.15;;
28802;SDS011;15949;55.656;37.422;2022-11-20T21:05:45;26.70;;;16.42;;
28802;SDS011;15949;55.656;37.422;2022-11-20T21:11:02;27.40;;;15.85;;
28802;SDS011;15949;55.656;37.422;2022-11-20T21:16:13;29.73;;;16.25;;
28802;SDS011;15949;55.656;37.422;2022-11-20T21:21:20;27.55;;;16.10;;
28802;SDS011;15949;55.656;37.422;2022-11-20T21:26:44;24.30;;;14.65;;
28802;SDS011;15949;55.656;37.422;2022-11-20T21:31:50;28.58;;;16.20;;
28802;SDS011;15949;55.656;37.422;2022-11-20T21:36:56;24.92;;;15.80;;
28802;SDS011;15949;55.656;37.422;2022-11-20T21:42:02;27.65;;;15.65;;
28802;SDS011;15949;55.656;37.422;2022-11-20T21:47:08;24.73;;;14.10;;
28802;SDS011;15949;55.656;37.422;2022-11-20T21:52:13;22.23;;;13.98;;
28802;SDS011;15949;55.656;37.422;2022-11-20T21:57:19;22.60;;;14.73;;
28802;SDS011;15949;55.656;37.422;2022-11-20T22:02:24;28.15;;;16.65;;
28802;SDS011;15949;55.656;37.422;2022-11-20T22:07:30;29.55;;;16.95;;
28802;SDS011;15949;55.656;37.422;2022-11-20T22:12:35;32.35;;;17.67;;
28802;SDS011;15949;55.656;37.422;2022-11-20T22:17:41;32.08;;;18.45;;
28802;SDS011;15949;55.656;37.422;2022-11-20T22:23:05;34.05;;;18.55;;
28802;SDS011;15949;55.656;37.422;2022-11-20T22:28:11;37.30;;;19.20;;
28802;SDS011;15949;55.656;37.422;2022-11-20T22:33:16;30.60;;;19.63;;
28802;SDS011;15949;55.656;37.422;2022-11-20T22:38:23;36.97;;;19.65;;
28802;SDS011;15949;55.656;37.422;2022-11-20T22:43:29;33.60;;;18.48;;
28802;SDS011;15949;55.656;37.422;2022-11-20T22:48:36;35.08;;;19.65;;
28802;SDS011;15949;55.656;37.422;2022-11-20T22:53:43;33.25;;;18.25;;
28802;SDS011;15949;55.656;37.422;2022-11-20T22:58:49;32.90;;;19.15;;
28802;SDS011;15949;55.656;37.422;2022-11-20T23:04:03;32.60;;;18.55;;
28802;SDS011;15949;55.656;37.422;2022-11-20T23:09:10;35.35;;;19.75;;
28802;SDS011;15949;55.656;37.422;2022-11-20T23:14:17;34.58;;;19.25;;
28802;SDS011;15949;55.656;37.422;2022-11-20T23:19:22;33.50;;;19.13;;
28802;SDS011;15949;55.656;37.422;2022-11-20T23:24:28;34.72;;;19.42;;
28802;SDS011;15949;55.656;37.422;2022-11-20T23:29:34;33.90;;;19.52;;
28802;SDS011;15949;55.656;37.422;2022-11-20T23:34:39;36.03;;;19.40;;
28802;SDS011;15949;55.656;37.422;2022-11-20T23:39:45;35.47;;;19.40;;
28802;SDS011;15949;55.656;37.422;2022-11-20T23:44:50;33.15;;;19.13;;
28802;SDS011;15949;55.656;37.422;2022-11-20T23:49:56;33.60;;;19.52;;
28802;SDS011;15949;55.656;37.422;2022-11-20T23:55:01;32.80;;;19.30;;
